To NAV CANADA Home Page Login to a new session Search on AWWS site Feedback and Comments Disclaimer Vers la page française équivalente Tips FAQ What's new on the site To the Forecasts and Observations / NOTAM section To "File a Flight Plan" website Publications and other links Update of the User's profile FIC Telephone Numbers My Weather Data Folder Route Weather Data Regional Weather Data Local Weather Data To the Forecasts and Observations / NOTAM section
Request Generated 09/29/2016 at 06:41:01 UTC . Weather information available at that time is displayed.

METAR/TAF

LYNN LAKE/MB    (show WxCam)

METAR CYYL 290600Z AUTO 23006KT 9SM CLR 03/01 A3035 RMK SLP296=
METAR CYYL 290500Z AUTO 23006KT 9SM CLR 03/01 A3035 RMK SLP295=
METAR CYYL 290400Z AUTO 26002KT 9SM CLR 02/00 A3034 RMK SLP292=

TAF CYYL 290638Z 2907/2919 23005KT P6SM SKC
FM291800 20010KT P6SM SCT100
RMK FCST BASED ON AUTO OBS. NXT FCST BY 291300Z=
Your time UTC time
Weather data provided by Environment Canada and NAV CANADA